Hoosier Classic - 100 Mile Activation

Station: Rantoul 104 Miles - T Race

Distance: 104 Miles    

Release: 11-Sep-2017 07:00

Weather Release:    Arrival:

Wind at Release:     Wind at Arrival:

Temp at Release: °    Temp at Arrival: °

Lofts: 336

Birds: 1441

Clocked: 1380

Good Luck to Everyone!
Drops Pos Breeder Pigeon Name Color Sex Ent Arrival Speed To Win Eligible Op 1Op 2
1 B Q E Loft - NY 0242-IF17-FVC Brooklyn queens express BB C 1 09:17:53.80 1327.371 00:00:00 Yes
2 Pleasant Task Farm - PA 0710-AU17-PTF 750x243 BBWF H 1 09:20:47.50 1300.077 00:02:54 Yes
3 Red Ass Ranch - TX 0145-AU17-RAR BWFP C 1 09:20:52.30 1299.339 00:02:58 Yes
4 Orozco's Loft - MI 0031-AU17-OROZ BCH H 1 09:21:02.30 1297.803 00:03:09 Yes
5 Dream Union - DC 1125-IF17-SLP BB C 1 09:21:44.90 1291.303 00:03:51 Yes
5 Ganus Family Loft - IN 0731-AU17-GFL BB H 1 09:21:44.90 1291.303 00:03:51 Yes
7 Michael Hibbard - OH 4237-AU17-VK BCH C 1 09:21:45.00 1291.287 00:03:51 Yes
8 Tank Loft - FL 33586-AU17-ARPU Tank jr BCH C 1 09:21:45.40 1291.227 00:03:52 Yes
8 Mikey Dads Loft - NY 0035-IF17-MDL Marty's girl BB H 1 09:21:45.40 1291.227 00:03:52 Yes
8 Warren Loft - NE 0023-AU17-WARR BB H 1 09:21:45.40 1291.227 00:03:52 Yes
11 Book & Van Wingerden - AZ 7000-AU17-BOOK Wacko's Park Place BB H 1 09:21:48.00 1290.832 00:03:54 Yes
12 Gonzalez Loft Of Ca - CA 0761-AU17-GONZ BCH H 1 09:22:01.80 1288.742 00:04:08 Yes
13 Andy Skwiat - IN 0040-AU17-ANDY PNSP C 1 09:22:06.10 1288.092 00:04:12 Yes
13 Watusi Warriors - CA 0219-AU17-JOJO BB C 1 09:22:06.10 1288.092 00:04:12 Yes
15 America\'s Dream Loft - IL 0007-AU17-ADL BB C 1 09:22:09.70 1287.548 00:04:16 Yes
16 Ganus Family Loft - IN 0322-AU17-GFL BB H 2 09:22:10.30 1287.458 00:04:16 Yes
17 Liberty Loft - MA 4946-AU17-VK BB C 1 09:22:11.60 1287.261 00:04:18 Yes
18 Bob Long - KY 0646-AU17-CBS BWF C 1 09:22:12.30 1287.156 00:04:19 Yes
19 Torres Loft Of Detroit - MI 0360-AU17-WSM CHPD H 1 09:22:13.50 1286.975 00:04:20 Yes
20 Schillings - IN 0856-AU17-BFS SILV C 1 09:22:13.60 1286.960 00:04:20 Yes
21 Bob Long - KY 5164-AU17-ARPU BCH C 2 09:22:14.30 1286.854 00:04:21 Yes
22 Hayloft - CA 7108-AU17-GSF BWF C 1 09:22:15.10 1286.734 00:04:21 Yes
23 Paul Byrski - WI 2588-AU17-GW BB C 1 09:22:15.40 1286.688 00:04:22 Yes
24 Nanez Family Lofts - WI 4025-AU17-NFL BBWF H 1 09:22:15.50 1286.673 00:04:22 Yes
25 Steel City Loft - PA 0372-IF17-YUK BWF C 1 09:22:16.20 1286.568 00:04:22 Yes
26 Malloy Flying Loft - TX 0118-AU17-MALL BB H 1 09:22:16.80 1286.477 00:04:23 Yes
27 Shelley Braddy - IN 0009-AU17-XLOF Wittenberg BB C 1 09:22:16.90 1286.462 00:04:23 Yes
28 Ken Easley & Son Racing - NM 5006-AU17-EASL 3594 x 114 BBWF C 1 09:22:17.50 1286.372 00:04:24 Yes
29 Tiwi Pigeons - CA 8766-AU17-JEDD Big Event BBWF C 1 09:22:18.90 1286.161 00:04:25 Yes
30 Callejas Loft - IL 0114-AU17-CALL Rambo BB C 1 09:22:19.50 1286.071 00:04:26 Yes
30 Utaz Team - UT 0903-AU17-SLI BB C 1 09:22:19.50 1286.071 00:04:26 Yes
32 Flying Dragon Loft - GA 0520-AU17-GA BB H 1 09:22:20.20 1285.965 00:04:26 Yes
33 America\'s Dream Loft - IL 0047-AU17-ADL BCH H 2 09:22:20.30 1285.950 00:04:27 Yes
34 Lebresco-Rubino - PA 3101-IF17-WC GRIZ H 1 09:22:21.10 1285.830 00:04:27 Yes
35 Orozco's Loft - MI 0008-AU17-OROZ BB H 2 09:22:21.70 1285.739 00:04:28 Yes
35 J I L - CA 4087-AU17-JEDD " Northern Lights " BB H 1 09:22:21.70 1285.739 00:04:28 Yes
37 Valdmake Loft - FL 8223-AU17-AA BCH H 1 09:22:22.20 1285.664 00:04:28 Yes
38 Chachi Loft - FL 30020-AU17-ARPU today is my day BB C 1 09:22:22.60 1285.604 00:04:29 Yes
39 P J Loft - MD 0002-IF17-PJ BB H 1 09:22:22.70 1285.589 00:04:29 Yes
40 Cbp Loft - IN 0008-AU17-JHWA BB C 1 09:22:23.10 1285.529 00:04:29 Yes
41 Jim Kearney Loft - NY 4301-IF17-PERT BCH H 1 09:22:24.10 1285.378 00:04:30 Yes
42 F T L Loft - IN 13801-AU17-AA BB H 1 09:22:24.70 1285.288 00:04:31 Yes
43 Any Given Day Quest - TX 17047-AU17-AGD BCH C 1 09:22:25.70 1285.138 00:04:32 Yes
44 Ken Easley & Son Racing - NM 5018-AU17-EASL 1139 x 119 DCH H 2 09:22:26.40 1285.032 00:04:33 Yes
44 Alonso Loft - FL 0505-AU17-ALON BWF H 1 09:22:26.40 1285.032 00:04:33 Yes
46 T B Brothers Loft - MS 4426-AU17-VK BB H 1 09:22:27.20 1284.912 00:04:33 Yes
47 Gold Star Loft - CA 1280-AU17-STON BCH C 1 09:22:27.30 1284.897 00:04:34 Yes
47 Genesis Syndicate Loft - AZ 0264-AU17-SYN BCH H 1 09:22:27.30 1284.897 00:04:34 Yes
49 Sunshine Loft 2 - SC 7422-AU17-GRPC Pak--- Irma-2 BCH C 1 09:22:27.80 1284.822 00:04:34 Yes
50 Grayfoxharms - IL 2313-AU17-HARM BCH C 1 09:22:28.20 1284.762 00:04:34 Yes
50 Jones Family Loft - TX 7197-AU17-JFL BCH H 1 09:22:28.20 1284.762 00:04:34 Yes
52 Irishsyndicatelofts - AZ 7944-IF17-IRIS BB H 1 09:22:29.00 1284.641 00:04:35 Yes
53 Watusi Warriors - CA 1138-AU17-COM BB H 2 09:22:30.30 1284.446 00:04:37 Yes
54 Andy Skwiat - IN 0018-AU17-ANDY BB H 2 09:22:31.40 1284.281 00:04:38 Yes
55 Rpm Syndicate - ON 0004-AU17-BFS BB C 1 09:22:32.10 1284.176 00:04:38 Yes
56 Gibara Loft - FL 2648-AU17-HRPC BWF H 1 09:22:32.20 1284.161 00:04:38 Yes
56 Chuck 25 Loft - NV 29601-AU17-ARPU BCH H 1 09:22:32.20 1284.161 00:04:38 Yes
58 Nanez Family Lofts - WI 4047-AU17-NFL BB H 2 09:22:33.50 1283.966 00:04:40 Yes
59 Hylan Loft - NY 1371-IF17-FVC BCH H 1 09:22:34.10 1283.876 00:04:40 Yes
60 Menyuam Pom Loft - MN 12815-AU17-ARPU Zaaj BB H 1 09:22:34.40 1283.831 00:04:41 Yes
61 Wolf's Den Loft - IL 0022-AU17-WOLF BSP H 1 09:22:34.50 1283.816 00:04:41 Yes
61 Igor & Sons Loft - OR 0133-AU17-OTC BB C 1 09:22:34.50 1283.816 00:04:41 Yes
63 Ganus Family Loft - IN 0714-AU17-GFL BB H 3 09:22:35.20 1283.710 00:04:41 Yes
63 B Q E Loft - NY 0241-IF17-FVC Yardbird BB H 2 09:22:35.20 1283.710 00:04:41 Yes
65 Shiloft - PA 5082-IF17-ERIE BCH H 1 09:22:36.60 1283.500 00:04:43 Yes
66 Sky Racers Loft - CA 1568-AU17-COM DCWF H 1 09:22:37.70 1283.335 00:04:44 Yes
67 Dream Team - VT 0302-AU17-JCZL 6817X35553 DCH H 1 09:22:37.80 1283.320 00:04:44 Yes
68 America\'s Dream Loft - IL 0043-AU17-ADL BCH H 3 09:22:38.20 1283.260 00:04:44 Yes
69 Aztec Loft - DE 0270-AU17-AZTE Kimba BWF H 1 09:22:38.70 1283.186 00:04:45 Yes
70 Team Spring Hill - FL 1815-AU17-GHC BB H 1 09:22:39.50 1283.066 00:04:46 Yes
71 O Rodriguez Loft - FL 7734-IF17-SGF BB C 1 09:22:40.20 1282.961 00:04:46 Yes
71 Spirit In The Sky - IL 0323-AU17-LCC BCH H 1 09:22:40.20 1282.961 00:04:46 Yes
73 Ganus Family Loft - IN 0750-AU17-GFL BB H 4 09:22:40.70 1282.886 00:04:47 Yes
74 Malone Family Loft - IL 0085-AU17-MALO "Jacks Pick" BB C 1 09:22:41.00 1282.841 00:04:47 Yes
75 Ciz Loft - IL 7807-AU17-CHIC BB H 1 09:22:42.50 1282.616 00:04:49 Yes
75 Racine Jun Xiao - WI 0535-AU17-RAC BB H 1 09:22:42.50 1282.616 00:04:49 Yes
77 Nick & Sons - WA 49853-AU17-ARPU BB H 1 09:22:43.20 1282.511 00:04:49 Yes
78 Elton Dinga - TX 12034-AU17-AA Klaas BB C 1 09:22:44.00 1282.391 00:04:50 Yes
79 Kowkow Family - IL 0212-AU17-BFS BCH C 1 09:22:44.70 1282.287 00:04:51 Yes
80 Nemelka Racing Pigeon Loft - UT 7048-AU17-NRPL Superstitious x Aarden 2 BBPD H 1 09:22:45.50 1282.167 00:04:52 Yes
81 Chai Suen Siu - MI 1648-AU17-GRM DCH H 1 09:22:46.00 1282.092 00:04:52 Yes
82 Hylek Loft - IN 0303-AU17-MICH BB C 1 09:22:46.40 1282.032 00:04:53 Yes
83 Send An Ace Loft - WA 1620-AU17-GSC BCH H 1 09:22:46.50 1282.017 00:04:53 Yes
84 Junior Juanich - CA 0834-AU17-JRL BB C 1 09:22:47.10 1281.927 00:04:53 Yes
85 Racine Jun Xiao - WI 0504-AU17-RAC BB H 2 09:22:47.20 1281.912 00:04:53 Yes
86 Acre Farms - CA 0329-AU17-GENT BCH C 1 09:22:48.90 1281.658 00:04:55 Yes
87 Flying Dragon Loft - GA 0512-AU17-GA BB H 2 09:22:49.80 1281.523 00:04:56 Yes
88 Dan & Pete - IL 0008-AU17-BFS BB H 1 09:22:50.30 1281.449 00:04:56 Yes
88 Marocik Loft - NY 0609-IF17-TRI BCH H 1 09:22:50.30 1281.449 00:04:56 Yes
90 Medina Loft - TX 0141-AU17-JJME BB C 1 09:22:50.40 1281.434 00:04:57 Yes
90 Jones Family Loft - TX 0742-AU17-KJ BCH H 2 09:22:50.40 1281.434 00:04:57 Yes
92 Andy Skwiat - IN 0014-AU17-ANDY BSP C 3 09:22:50.90 1281.359 00:04:57 Yes
93 Genesis Syndicate Loft - AZ 0326-AU17-SYN BWF C 2 09:22:51.40 1281.284 00:04:58 Yes
94 Book & Van Wingerden - AZ 7001-AU17-BOOK Wacko's Boardwalk BB C 2 09:22:51.90 1281.210 00:04:58 Yes
95 Bob Long - KY 5167-AU17-ARPU BB C 3 09:22:52.00 1281.195 00:04:58 Yes
96 K T Loft - IN 0206-AU17-KT BCH C 1 09:22:52.50 1281.120 00:04:59 Yes
96 Anthony Family Loft - FL 0589-AU17-HRPC BCH H 1 09:22:52.50 1281.120 00:04:59 Yes
98 Fly High - IL 0602-AU17-LCC BB H 1 09:22:54.30 1280.851 00:05:01 Yes
99 Andy Skwiat - IN 0009-AU17-ANDY BB H 4 09:22:55.10 1280.731 00:05:01 Yes
100 Book & Van Wingerden - AZ 7005-AU17-BOOK BBPD H 3 09:22:55.60 1280.657 00:05:02 Yes

There are 1345 bird records

Note: These Race Results are unofficial and subject to change until verified by the Race Committee and declared final.